createdAt,value
2022-12-15T00:02:07.874Z,60.23
2022-12-15T00:04:54.529Z,60.29
2022-12-15T00:07:41.184Z,60.21
2022-12-15T00:10:31.351Z,60.25
2022-12-15T00:13:20.456Z,60.30
2022-12-15T00:16:06.373Z,60.39
2022-12-15T00:18:52.240Z,60.46
2022-12-15T00:21:40.293Z,60.51
2022-12-15T00:24:26.548Z,60.48
2022-12-15T00:27:16.202Z,60.71
2022-12-15T00:30:02.466Z,60.76
2022-12-15T00:32:47.960Z,60.80
2022-12-15T00:35:33.738Z,60.88
2022-12-15T00:38:33.983Z,60.73
2022-12-15T00:41:01.520Z,60.63
2022-12-15T00:43:32.399Z,60.76
2022-12-15T00:46:21.182Z,60.55
2022-12-15T00:48:54.040Z,60.60
2022-12-15T00:51:21.254Z,60.61
2022-12-15T00:54:06.781Z,60.41
2022-12-15T00:56:52.671Z,60.42
2022-12-15T00:59:38.494Z,60.70
2022-12-15T01:02:29.530Z,60.85
2022-12-15T01:05:16.686Z,60.81
2022-12-15T01:08:05.900Z,60.72
2022-12-15T01:10:55.565Z,60.26
2022-12-15T01:13:41.407Z,60.04
2022-12-15T01:16:35.050Z,60.03
2022-12-15T01:19:22.119Z,60.07
2022-12-15T01:21:49.978Z,60.00
2022-12-15T01:24:21.122Z,60.24
2022-12-15T01:26:53.022Z,60.17
2022-12-15T01:29:22.727Z,60.09
2022-12-15T01:31:50.749Z,59.95
2022-12-15T01:34:25.095Z,60.18
2022-12-15T01:36:52.173Z,60.17
2022-12-15T01:39:24.912Z,60.27
2022-12-15T01:41:52.341Z,60.42
2022-12-15T01:44:25.688Z,60.68
2022-12-15T01:46:57.372Z,60.67
2022-12-15T01:49:29.015Z,60.63
2022-12-15T01:51:59.357Z,60.52
2022-12-15T01:54:32.350Z,60.39
2022-12-15T01:57:11.170Z,59.89
2022-12-15T02:02:43.196Z,59.91
2022-12-15T02:05:15.881Z,59.85
2022-12-15T02:07:43.059Z,59.99
2022-12-15T02:10:11.745Z,59.86
2022-12-15T02:12:40.868Z,60.06
2022-12-15T02:15:14.856Z,59.90
2022-12-15T02:18:00.876Z,60.08
2022-12-15T02:21:06.112Z,59.70
2022-12-15T02:24:05.506Z,59.64
2022-12-15T02:26:36.056Z,59.77
2022-12-15T02:29:25.610Z,59.42
2022-12-15T02:31:58.286Z,60.02
2022-12-15T02:34:30.308Z,59.62
2022-12-15T02:37:00.159Z,59.43
2022-12-15T02:39:38.933Z,59.20
2022-12-15T02:42:06.427Z,59.33
2022-12-15T02:44:38.600Z,59.22
2022-12-15T02:47:46.598Z,59.04
2022-12-15T02:50:23.601Z,59.57
2022-12-15T02:53:00.174Z,58.83
2022-12-15T02:55:38.384Z,58.85
2022-12-15T02:58:18.700Z,58.95
2022-12-15T03:00:51.098Z,58.86
2022-12-15T03:03:20.781Z,58.76
2022-12-15T03:05:49.913Z,59.04
2022-12-15T03:08:17.385Z,58.89
2022-12-15T03:10:44.671Z,58.73
2022-12-15T03:13:11.722Z,58.66
2022-12-15T03:15:39.077Z,58.52
2022-12-15T03:18:06.224Z,58.52
2022-12-15T03:20:33.688Z,58.52
2022-12-15T03:23:02.369Z,58.62
2022-12-15T03:25:29.738Z,58.54
2022-12-15T03:27:58.109Z,58.76
2022-12-15T03:30:25.342Z,58.72
2022-12-15T03:32:52.637Z,58.66
2022-12-15T03:35:19.563Z,58.58
2022-12-15T03:37:46.760Z,58.73
2022-12-15T03:40:17.034Z,58.55
2022-12-15T03:42:51.073Z,58.25
2022-12-15T03:45:25.960Z,59.19
2022-12-15T03:47:53.517Z,59.48
2022-12-15T03:50:22.226Z,60.41
2022-12-15T03:52:53.730Z,60.36
2022-12-15T03:55:21.559Z,60.38
2022-12-15T03:57:48.690Z,60.76
2022-12-15T04:00:17.657Z,61.11
2022-12-15T04:02:56.390Z,61.01
2022-12-15T04:05:36.318Z,60.98
2022-12-15T04:08:11.791Z,61.23
2022-12-15T04:10:39.239Z,61.22
2022-12-15T04:13:15.123Z,61.24
2022-12-15T04:15:50.708Z,60.88
2022-12-15T04:18:23.077Z,61.23
2022-12-15T04:20:54.394Z,60.99
2022-12-15T04:23:28.387Z,61.43
2022-12-15T04:26:25.412Z,61.60
2022-12-15T04:29:11.507Z,61.46
2022-12-15T04:32:05.094Z,61.40
2022-12-15T04:34:57.539Z,61.18
2022-12-15T04:37:47.431Z,61.26
2022-12-15T04:40:34.735Z,61.48
2022-12-15T04:43:24.162Z,61.48
2022-12-15T04:46:11.318Z,61.26
2022-12-15T04:49:02.451Z,61.28
2022-12-15T04:51:55.008Z,61.13
2022-12-15T04:57:47.340Z,61.54
2022-12-15T05:00:44.765Z,61.35
2022-12-15T05:03:35.581Z,61.46
2022-12-15T05:06:29.131Z,61.33
2022-12-15T05:09:15.798Z,61.39
2022-12-15T05:12:07.470Z,61.75
2022-12-15T05:14:56.878Z,61.67
2022-12-15T05:17:45.531Z,61.57
2022-12-15T05:20:34.099Z,61.68
2022-12-15T05:23:25.804Z,61.81
2022-12-15T05:26:18.882Z,62.09
2022-12-15T05:29:06.983Z,62.02
2022-12-15T05:31:56.362Z,61.74
2022-12-15T05:34:27.163Z,61.54
2022-12-15T05:37:08.408Z,61.12
2022-12-15T05:39:42.590Z,61.21
2022-12-15T05:42:38.241Z,60.96
2022-12-15T05:45:16.975Z,61.46
2022-12-15T05:47:50.865Z,61.45
2022-12-15T05:50:22.748Z,61.63
2022-12-15T05:52:50.815Z,61.45
2022-12-15T05:55:22.538Z,61.54
2022-12-15T05:57:53.912Z,61.49
2022-12-15T06:00:27.497Z,61.82
2022-12-15T06:03:01.212Z,61.78
2022-12-15T06:05:37.046Z,61.76
2022-12-15T06:08:09.510Z,61.78
2022-12-15T06:10:48.702Z,61.87
2022-12-15T06:13:43.568Z,61.64
2022-12-15T06:16:13.982Z,61.56
2022-12-15T06:18:49.933Z,61.92
2022-12-15T06:21:20.833Z,62.16
2022-12-15T06:23:53.211Z,63.17
2022-12-15T06:26:22.685Z,64.04
2022-12-15T06:28:56.688Z,64.42
2022-12-15T06:31:30.045Z,64.95
2022-12-15T06:34:02.108Z,65.40
2022-12-15T06:36:36.632Z,66.32
2022-12-15T06:39:12.088Z,66.33
2022-12-15T06:41:41.736Z,66.51
2022-12-15T06:44:19.359Z,66.05
2022-12-15T06:46:53.796Z,66.50
2022-12-15T06:49:36.135Z,66.73
2022-12-15T06:52:15.706Z,67.00
2022-12-15T06:54:45.465Z,67.15
2022-12-15T06:57:17.909Z,68.12
2022-12-15T06:59:50.296Z,68.23
2022-12-15T07:02:28.517Z,68.61
2022-12-15T07:04:56.187Z,68.15
2022-12-15T07:07:26.123Z,67.43
2022-12-15T07:09:53.094Z,67.46
2022-12-15T07:12:21.397Z,67.51
2022-12-15T07:14:53.532Z,67.46
2022-12-15T07:17:27.404Z,66.84
2022-12-15T07:19:55.149Z,65.90
2022-12-15T07:22:22.922Z,66.58
2022-12-15T07:24:50.162Z,66.25
2022-12-15T07:27:18.349Z,66.12
2022-12-15T07:29:45.383Z,65.52
2022-12-15T07:32:15.403Z,65.87
2022-12-15T07:34:42.763Z,65.72
2022-12-15T07:37:12.154Z,66.65
2022-12-15T07:39:42.117Z,66.44
2022-12-15T07:42:09.328Z,66.23
2022-12-15T07:44:36.378Z,66.44
2022-12-15T07:47:07.912Z,65.56
2022-12-15T07:49:34.893Z,65.89
2022-12-15T07:52:04.684Z,65.33
2022-12-15T07:54:31.792Z,64.86
2022-12-15T07:57:00.277Z,64.42
2022-12-15T07:59:27.779Z,64.68
2022-12-15T08:02:01.115Z,64.42
2022-12-15T08:04:31.224Z,64.26
2022-12-15T08:07:01.751Z,64.64
2022-12-15T08:09:28.776Z,65.26
2022-12-15T08:11:57.085Z,65.54
2022-12-15T08:14:24.954Z,64.42
2022-12-15T08:16:52.223Z,64.95
2022-12-15T08:19:22.291Z,64.81
2022-12-15T08:21:49.325Z,64.81
2022-12-15T08:24:17.768Z,64.51
2022-12-15T08:26:50.103Z,64.54
2022-12-15T08:29:49.657Z,65.02
2022-12-15T08:32:05.850Z,63.96
2022-12-15T08:34:37.768Z,64.16
2022-12-15T08:37:04.875Z,63.12
2022-12-15T08:39:35.196Z,62.85
2022-12-15T08:42:05.744Z,61.69
2022-12-15T08:44:36.480Z,61.47
2022-12-15T08:47:06.098Z,60.76
2022-12-15T08:49:36.463Z,60.87
2022-12-15T08:52:07.037Z,61.13
2022-12-15T08:54:39.100Z,60.07
2022-12-15T08:57:11.165Z,60.22
2022-12-15T08:59:39.840Z,60.93
2022-12-15T09:02:10.475Z,61.88
2022-12-15T09:04:40.633Z,60.53
2022-12-15T09:07:08.200Z,60.89
2022-12-15T09:09:40.694Z,61.54
2022-12-15T09:12:10.927Z,61.57
2022-12-15T09:14:42.044Z,61.02
2022-12-15T09:17:12.989Z,60.37
2022-12-15T09:19:48.697Z,60.49
2022-12-15T09:22:19.015Z,58.62
2022-12-15T09:25:01.828Z,57.24
2022-12-15T09:27:36.264Z,56.64
2022-12-15T09:30:07.450Z,55.16
2022-12-15T09:32:48.111Z,54.10
2022-12-15T09:35:17.975Z,52.36
2022-12-15T09:37:51.977Z,51.64
2022-12-15T09:40:20.421Z,49.50
2022-12-15T09:43:32.991Z,47.95
2022-12-15T09:46:00.629Z,47.46
2022-12-15T09:48:34.713Z,47.11
2022-12-15T09:51:04.854Z,45.51
2022-12-15T09:53:57.593Z,45.56
2022-12-15T09:56:23.041Z,44.83
2022-12-15T09:58:55.059Z,43.63
2022-12-15T10:01:40.137Z,43.35
2022-12-15T10:04:34.419Z,42.98
2022-12-15T10:07:10.031Z,42.12
2022-12-15T10:09:39.105Z,41.42
2022-12-15T10:12:34.708Z,40.55
2022-12-15T10:15:20.694Z,40.36
2022-12-15T10:17:53.904Z,42.77
2022-12-15T10:20:24.524Z,41.83
2022-12-15T10:22:51.826Z,42.80
2022-12-15T10:25:30.780Z,41.54
2022-12-15T10:28:23.366Z,40.32
2022-12-15T10:30:51.244Z,40.25
2022-12-15T10:33:30.828Z,39.84
2022-12-15T10:36:00.312Z,38.81
2022-12-15T10:38:39.971Z,38.86
2022-12-15T10:41:10.058Z,40.27
2022-12-15T10:43:44.247Z,41.08
2022-12-15T10:46:19.095Z,40.12
2022-12-15T10:49:02.742Z,38.40
2022-12-15T10:52:02.775Z,39.06
2022-12-15T10:54:37.493Z,39.42
2022-12-15T10:57:19.128Z,38.78
2022-12-15T10:59:46.554Z,37.45
2022-12-15T11:02:30.742Z,39.10
2022-12-15T11:05:04.363Z,41.01
2022-12-15T11:07:42.174Z,40.41
2022-12-15T11:13:27.351Z,42.21
2022-12-15T11:19:02.681Z,45.77
2022-12-15T11:21:37.970Z,46.32
2022-12-15T11:24:09.781Z,44.36
2022-12-15T11:26:43.633Z,42.08
2022-12-15T11:29:19.388Z,42.98
2022-12-15T11:31:58.922Z,40.82
2022-12-15T11:34:39.120Z,38.53
2022-12-15T11:37:34.044Z,36.76
2022-12-15T11:43:30.059Z,34.58
2022-12-15T11:46:28.607Z,33.61
2022-12-15T11:49:01.721Z,33.33
2022-12-15T11:51:54.675Z,31.65
2022-12-15T11:54:30.510Z,30.36
2022-12-15T11:57:24.168Z,29.39
2022-12-15T12:00:07.461Z,27.86
2022-12-15T12:02:48.420Z,27.38
2022-12-15T12:05:19.366Z,27.32
2022-12-15T12:08:13.708Z,27.44
2022-12-15T12:11:03.254Z,26.51
2022-12-15T12:13:56.602Z,26.46
2022-12-15T12:16:40.445Z,25.13
2022-12-15T12:19:19.626Z,24.53
2022-12-15T12:21:51.486Z,24.95
2022-12-15T12:24:28.391Z,26.94
2022-12-15T12:26:59.179Z,26.53
2022-12-15T12:29:48.658Z,26.74
2022-12-15T12:32:33.987Z,28.80
2022-12-15T12:35:30.345Z,29.27
2022-12-15T12:38:04.462Z,27.15
2022-12-15T12:40:43.670Z,28.59
2022-12-15T12:43:28.728Z,28.99
2022-12-15T12:46:10.472Z,27.72
2022-12-15T12:48:52.021Z,27.32
2022-12-15T12:51:21.221Z,26.20
2022-12-15T12:53:53.224Z,25.06
2022-12-15T12:56:35.446Z,27.12
2022-12-15T12:59:11.894Z,30.58
2022-12-15T13:01:40.712Z,32.21
2022-12-15T13:04:13.183Z,32.44
2022-12-15T13:06:40.603Z,31.71
2022-12-15T13:09:21.905Z,31.01
2022-12-15T13:11:49.208Z,32.30
2022-12-15T13:17:28.242Z,33.48
2022-12-15T13:20:06.675Z,32.25
2022-12-15T13:22:44.988Z,32.42
2022-12-15T13:25:40.830Z,30.88
2022-12-15T13:28:32.261Z,31.80
2022-12-15T13:31:23.769Z,31.76
2022-12-15T13:33:54.009Z,31.95
2022-12-15T13:36:39.988Z,32.29
2022-12-15T13:39:15.757Z,33.11
2022-12-15T13:44:49.599Z,34.10
2022-12-15T13:47:22.872Z,33.45
2022-12-15T13:50:09.985Z,33.12
2022-12-15T13:53:17.819Z,31.71
2022-12-15T13:55:39.607Z,31.03
2022-12-15T13:58:10.379Z,29.82
2022-12-15T14:00:48.768Z,29.71
2022-12-15T14:03:19.045Z,29.03
2022-12-15T14:05:54.016Z,28.81
2022-12-15T14:08:26.886Z,28.88
2022-12-15T14:11:22.326Z,27.96
2022-12-15T14:14:01.271Z,29.31
2022-12-15T14:16:36.990Z,27.84
2022-12-15T14:19:15.723Z,28.25
2022-12-15T14:21:53.142Z,28.67
2022-12-15T14:24:40.644Z,28.59
2022-12-15T14:27:21.492Z,28.69
2022-12-15T14:29:56.272Z,28.18
2022-12-15T14:32:26.479Z,29.19
2022-12-15T14:34:53.710Z,28.83
2022-12-15T14:37:24.776Z,29.45
2022-12-15T14:40:04.307Z,30.25
2022-12-15T14:42:31.478Z,31.48
2022-12-15T14:45:09.650Z,31.01
2022-12-15T14:47:37.392Z,31.17
2022-12-15T14:50:10.222Z,31.81
2022-12-15T14:52:40.121Z,32.52
2022-12-15T14:55:25.507Z,33.49
2022-12-15T14:57:57.641Z,33.51
2022-12-15T15:00:35.053Z,33.58
2022-12-15T15:03:10.317Z,34.40
2022-12-15T15:03:18.726Z,35.12
2022-12-15T15:06:20.406Z,34.95
2022-12-15T15:08:51.824Z,36.04
2022-12-15T15:11:30.835Z,35.78
2022-12-15T15:14:05.452Z,35.58
2022-12-15T15:16:41.576Z,35.45
2022-12-15T15:19:20.083Z,35.79
2022-12-15T15:21:52.732Z,35.67
2022-12-15T15:24:30.229Z,36.87
2022-12-15T15:27:20.599Z,38.15
2022-12-15T15:29:53.076Z,37.24
2022-12-15T15:32:25.042Z,38.22
2022-12-15T15:34:52.515Z,39.21
2022-12-15T15:37:21.905Z,38.40
2022-12-15T15:39:58.369Z,38.83
2022-12-15T15:42:32.516Z,38.96
2022-12-15T15:45:00.252Z,39.65
2022-12-15T15:47:31.878Z,39.74
2022-12-15T15:50:01.929Z,40.04
2022-12-15T15:52:37.448Z,40.26
2022-12-15T15:55:10.666Z,40.27
2022-12-15T15:57:43.520Z,40.60
2022-12-15T16:00:19.766Z,40.29
2022-12-15T16:02:50.208Z,40.58
2022-12-15T16:05:24.180Z,40.48
2022-12-15T16:07:53.798Z,40.36
2022-12-15T16:10:23.905Z,40.72
2022-12-15T16:12:58.850Z,40.73
2022-12-15T16:15:37.248Z,40.77
2022-12-15T16:18:04.516Z,40.20
2022-12-15T16:20:40.565Z,40.52
2022-12-15T16:23:12.016Z,40.88
2022-12-15T16:25:50.127Z,40.98
2022-12-15T16:28:28.860Z,41.18
2022-12-15T16:31:03.318Z,41.42
2022-12-15T16:33:36.058Z,41.30
2022-12-15T16:36:09.175Z,41.47
2022-12-15T16:38:36.870Z,41.48
2022-12-15T16:41:16.154Z,42.13
2022-12-15T16:43:48.273Z,42.20
2022-12-15T16:46:18.585Z,42.41
2022-12-15T16:48:45.651Z,42.64
2022-12-15T16:51:25.022Z,42.11
2022-12-15T16:53:55.004Z,42.32
2022-12-15T16:56:23.077Z,42.29
2022-12-15T16:58:57.401Z,42.54
2022-12-15T17:01:40.240Z,42.74
2022-12-15T17:04:07.689Z,42.81
2022-12-15T17:06:37.580Z,43.06
2022-12-15T17:09:07.603Z,42.93
2022-12-15T17:11:40.975Z,43.72
2022-12-15T17:14:11.704Z,43.46
2022-12-15T17:16:44.205Z,44.06
2022-12-15T17:19:14.926Z,43.93
2022-12-15T17:21:52.342Z,43.83
2022-12-15T17:24:27.868Z,43.93
2022-12-15T17:26:56.353Z,43.95
2022-12-15T17:29:25.576Z,43.98
2022-12-15T17:31:52.675Z,44.04
2022-12-15T17:34:28.163Z,44.44
2022-12-15T17:36:55.827Z,44.39
2022-12-15T17:39:23.158Z,44.48
2022-12-15T17:42:01.204Z,44.31
2022-12-15T17:44:36.189Z,44.56
2022-12-15T17:47:07.920Z,44.59
2022-12-15T17:49:39.309Z,44.99
2022-12-15T17:52:12.641Z,44.86
2022-12-15T17:54:39.874Z,44.69
2022-12-15T17:57:15.097Z,44.81
2022-12-15T17:59:46.922Z,45.12
2022-12-15T18:02:19.830Z,45.20
2022-12-15T18:04:48.354Z,44.61
2022-12-15T18:07:23.057Z,45.09
2022-12-15T18:09:51.276Z,44.73
2022-12-15T18:12:27.209Z,44.44
2022-12-15T18:14:57.600Z,44.89
2022-12-15T18:17:24.831Z,45.37
2022-12-15T18:19:54.944Z,44.99
2022-12-15T18:22:26.947Z,44.81
2022-12-15T18:24:58.027Z,44.73
2022-12-15T18:27:27.827Z,44.83
2022-12-15T18:29:58.242Z,45.26
2022-12-15T18:32:26.469Z,45.20
2022-12-15T18:34:56.168Z,45.15
2022-12-15T18:37:29.755Z,45.14
2022-12-15T18:40:02.579Z,45.09
2022-12-15T18:42:34.959Z,45.44
2022-12-15T18:45:05.214Z,45.96
2022-12-15T18:47:32.646Z,45.91
2022-12-15T18:50:12.037Z,46.45
2022-12-15T18:52:41.546Z,46.89
2022-12-15T18:55:22.727Z,46.08
2022-12-15T18:57:51.009Z,45.95
2022-12-15T19:00:19.461Z,46.63
2022-12-15T19:02:49.925Z,46.71
2022-12-15T19:05:31.469Z,45.81
2022-12-15T19:08:01.853Z,45.32
2022-12-15T19:10:34.611Z,45.09
2022-12-15T19:13:02.459Z,46.25
2022-12-15T19:15:29.801Z,45.64
2022-12-15T19:18:19.785Z,45.18
2022-12-15T19:21:05.937Z,45.38
2022-12-15T19:23:35.859Z,45.15
2022-12-15T19:26:06.476Z,45.56
2022-12-15T19:28:33.544Z,45.57
2022-12-15T19:31:02.018Z,45.75
2022-12-15T19:33:32.621Z,45.66
2022-12-15T19:36:00.405Z,45.96
2022-12-15T19:38:32.284Z,45.83
2022-12-15T19:41:04.720Z,46.08
2022-12-15T19:43:40.984Z,46.39
2022-12-15T19:46:34.708Z,45.94
2022-12-15T19:49:05.055Z,46.17
2022-12-15T19:54:54.456Z,46.72
2022-12-15T19:57:25.433Z,47.16
2022-12-15T20:00:04.167Z,47.55
2022-12-15T20:02:39.580Z,47.74
2022-12-15T20:05:13.581Z,48.11
2022-12-15T20:07:48.424Z,48.13
2022-12-15T20:10:31.916Z,48.29
2022-12-15T20:13:06.442Z,48.48
2022-12-15T20:15:38.305Z,48.24
2022-12-15T20:18:08.243Z,48.42
2022-12-15T20:20:38.404Z,48.54
2022-12-15T20:23:35.298Z,48.78
2022-12-15T20:26:03.662Z,49.46
2022-12-15T20:28:32.155Z,49.36
2022-12-15T20:31:04.115Z,49.73
2022-12-15T20:33:40.807Z,49.68
2022-12-15T20:36:17.248Z,49.69
2022-12-15T20:38:52.823Z,49.80
2022-12-15T20:41:25.519Z,50.24
2022-12-15T20:44:00.088Z,50.31
2022-12-15T20:46:56.275Z,50.45
2022-12-15T20:49:28.553Z,50.21
2022-12-15T20:52:06.932Z,49.76
2022-12-15T20:54:39.922Z,49.01
2022-12-15T20:57:09.114Z,49.32
2022-12-15T20:59:42.557Z,49.77
2022-12-15T21:02:27.242Z,50.28
2022-12-15T21:05:04.708Z,49.43
2022-12-15T21:07:35.206Z,48.91
2022-12-15T21:10:05.882Z,48.92
2022-12-15T21:12:33.939Z,48.31
2022-12-15T21:15:05.204Z,48.19
2022-12-15T21:17:33.618Z,47.69
2022-12-15T21:20:17.813Z,48.11
2022-12-15T21:22:45.404Z,47.94
2022-12-15T21:25:32.193Z,47.72
2022-12-15T21:28:09.790Z,48.06
2022-12-15T21:30:39.809Z,47.94
2022-12-15T21:33:12.138Z,47.68
2022-12-15T21:38:37.745Z,47.67
2022-12-15T21:41:13.164Z,48.10
2022-12-15T21:43:47.391Z,48.63
2022-12-15T21:46:27.690Z,48.84
2022-12-15T21:49:17.727Z,49.08
2022-12-15T21:51:56.232Z,49.40
2022-12-15T21:54:31.133Z,49.47
2022-12-15T21:57:07.645Z,49.86
2022-12-15T21:59:40.423Z,50.19
2022-12-15T22:02:28.526Z,50.22
2022-12-15T22:05:24.803Z,50.51
2022-12-15T22:08:00.650Z,50.58
2022-12-15T22:13:14.655Z,51.26
2022-12-15T22:15:52.611Z,51.12
2022-12-15T22:18:26.308Z,51.32
2022-12-15T22:20:56.772Z,51.34
2022-12-15T22:23:30.935Z,51.35
2022-12-15T22:26:06.513Z,51.41
2022-12-15T22:28:34.946Z,51.66
2022-12-15T22:31:04.850Z,51.37
2022-12-15T22:33:37.719Z,51.34
2022-12-15T22:36:13.725Z,51.63
2022-12-15T22:38:46.013Z,51.48
2022-12-15T22:41:25.780Z,51.57
2022-12-15T22:43:59.149Z,51.65
2022-12-15T22:46:40.204Z,51.54
2022-12-15T22:49:16.528Z,52.05
2022-12-15T22:51:56.963Z,51.88
2022-12-15T22:54:26.694Z,52.13
2022-12-15T22:57:02.070Z,52.03
2022-12-15T22:59:41.432Z,51.98
2022-12-15T23:02:12.395Z,51.93
2022-12-15T23:04:43.461Z,52.04
2022-12-15T23:07:11.781Z,52.60
2022-12-15T23:09:39.622Z,52.16
2022-12-15T23:12:07.459Z,52.34
2022-12-15T23:14:55.154Z,52.78
2022-12-15T23:17:23.935Z,52.38
2022-12-15T23:19:59.279Z,52.62
2022-12-15T23:22:29.341Z,52.43
2022-12-15T23:24:57.925Z,52.12
2022-12-15T23:27:29.850Z,52.20
2022-12-15T23:29:57.934Z,52.38
2022-12-15T23:32:28.551Z,53.25
2022-12-15T23:34:57.263Z,52.90
2022-12-15T23:37:24.745Z,53.14
2022-12-15T23:39:54.023Z,52.99
2022-12-15T23:42:27.952Z,52.69
2022-12-15T23:44:56.801Z,52.50
2022-12-15T23:47:25.892Z,51.58
2022-12-15T23:49:59.320Z,50.70
2022-12-15T23:52:29.415Z,51.40
2022-12-15T23:54:57.308Z,51.75
2022-12-15T23:57:27.456Z,51.47
